createdAt,value
2019-04-20T00:01:36.023Z,95163.25
2019-04-20T00:04:05.433Z,95156.91
2019-04-20T00:06:43.376Z,95154.77
2019-04-20T00:09:12.063Z,95160.30
2019-04-20T00:11:50.709Z,95164.20
2019-04-20T00:14:13.432Z,95167.05
2019-04-20T00:16:37.825Z,95171.89
2019-04-20T00:19:08.532Z,95175.16
2019-04-20T00:21:47.362Z,95185.89
2019-04-20T00:24:16.877Z,95179.11
2019-04-20T00:27:08.548Z,95182.09
2019-04-20T00:29:32.218Z,95186.20
2019-04-20T00:31:53.610Z,95186.51
2019-04-20T00:34:21.292Z,95167.73
2019-04-20T00:36:43.424Z,95198.87
2019-04-20T00:39:15.014Z,95191.63
2019-04-20T00:41:49.898Z,95198.98
2019-04-20T00:44:21.934Z,95192.20
2019-04-20T00:46:56.832Z,95198.22
2019-04-20T00:49:30.584Z,95186.94
2019-04-20T00:52:17.059Z,95188.91
2019-04-20T00:54:15.984Z,95177.91
2019-04-20T00:56:45.447Z,95174.61
2019-04-20T00:59:27.659Z,95175.47
2019-04-20T01:02:04.052Z,95173.98
2019-04-20T01:04:38.870Z,95171.71
2019-04-20T01:07:06.301Z,95173.06
2019-04-20T01:09:25.025Z,95171.05
2019-04-20T01:11:54.527Z,95171.05
2019-04-20T01:14:34.058Z,95168.44
2019-04-20T01:16:58.794Z,95165.38
2019-04-20T01:19:24.016Z,95161.77
2019-04-20T01:21:59.674Z,95158.46
2019-04-20T01:24:29.708Z,95161.92
2019-04-20T01:26:58.463Z,95158.47
2019-04-20T01:29:32.439Z,95161.29
2019-04-20T01:32:07.979Z,95161.19
2019-04-20T01:34:39.165Z,95160.66
2019-04-20T01:37:09.299Z,95165.47
2019-04-20T01:39:34.806Z,95172.48
2019-04-20T01:41:56.143Z,95172.33
2019-04-20T01:44:31.742Z,95168.59
2019-04-20T01:46:58.722Z,95157.75
2019-04-20T01:49:31.535Z,95159.38
2019-04-20T01:52:09.701Z,95156.55
2019-04-20T01:54:48.193Z,95147.39
2019-04-20T01:57:09.002Z,95157.16
2019-04-20T01:59:50.151Z,95155.38
2019-04-20T02:02:14.624Z,95155.84
2019-04-20T02:04:48.271Z,95148.90
2019-04-20T02:07:18.449Z,95149.66
2019-04-20T02:09:53.462Z,95144.09
2019-04-20T02:12:23.655Z,95147.84
2019-04-20T02:14:53.713Z,95142.58
2019-04-20T02:17:28.366Z,95139.84
2019-04-20T02:20:07.335Z,95144.25
2019-04-20T02:22:40.754Z,95140.00
2019-04-20T02:24:48.961Z,95144.96
2019-04-20T02:27:19.725Z,95151.55
2019-04-20T02:30:13.459Z,95148.80
2019-04-20T02:32:59.266Z,95148.14
2019-04-20T02:35:30.230Z,95150.38
2019-04-20T02:38:02.885Z,95116.41
2019-04-20T02:40:47.729Z,95134.14
2019-04-20T02:48:08.098Z,95131.80
2019-04-20T02:50:28.651Z,95135.59
2019-04-20T02:53:05.125Z,95131.64
2019-04-20T03:00:23.937Z,95123.92
2019-04-20T03:02:43.936Z,95128.15
2019-04-20T03:05:12.179Z,95122.91
2019-04-20T03:07:52.528Z,95123.65
2019-04-20T03:10:17.730Z,95118.97
2019-04-20T03:12:53.706Z,95100.64
2019-04-20T03:15:24.051Z,95121.78
2019-04-20T03:17:53.087Z,95124.02
2019-04-20T03:20:22.104Z,95125.02
2019-04-20T03:23:11.681Z,95124.24
2019-04-20T03:25:43.112Z,95117.65
2019-04-20T03:28:10.323Z,95125.95
2019-04-20T03:33:31.414Z,95130.59
2019-04-20T03:36:06.148Z,95136.80
2019-04-20T03:38:21.110Z,95136.36
2019-04-20T03:40:42.726Z,95139.26
2019-04-20T03:43:01.994Z,95136.55
2019-04-20T03:45:39.184Z,95143.17
2019-04-20T03:48:14.352Z,95143.30
2019-04-20T03:50:54.670Z,95146.47
2019-04-20T03:53:22.953Z,95153.53
2019-04-20T03:55:52.865Z,95146.75
2019-04-20T03:58:30.569Z,95153.84
2019-04-20T04:01:32.867Z,95151.59
2019-04-20T04:04:05.387Z,95149.19
2019-04-20T04:06:24.161Z,95156.42
2019-04-20T04:08:57.542Z,95156.55
2019-04-20T04:11:35.298Z,95163.48
2019-04-20T04:13:46.484Z,95164.81
2019-04-20T04:16:18.483Z,95164.19
2019-04-20T04:18:49.631Z,95165.23
2019-04-20T04:21:22.092Z,95169.89
2019-04-20T04:24:02.420Z,95173.48
2019-04-20T04:26:34.344Z,95172.56
2019-04-20T04:29:11.010Z,95171.63
2019-04-20T04:31:39.127Z,95173.40
2019-04-20T04:34:22.883Z,95175.33
2019-04-20T04:36:39.140Z,95183.13
2019-04-20T04:39:08.683Z,95180.71
2019-04-20T04:41:37.443Z,95179.87
2019-04-20T04:44:09.926Z,95182.63
2019-04-20T04:46:20.693Z,95181.00
2019-04-20T04:48:52.738Z,95184.27
2019-04-20T04:51:25.711Z,95184.86
2019-04-20T04:53:59.335Z,95192.86
2019-04-20T04:56:23.976Z,95189.16
2019-04-20T04:58:51.732Z,95193.14
2019-04-20T05:01:26.006Z,95192.08
2019-04-20T05:04:19.238Z,95191.80
2019-04-20T05:06:35.657Z,95198.47
2019-04-20T05:08:56.831Z,95192.27
2019-04-20T05:11:23.801Z,95194.33
2019-04-20T05:13:59.705Z,95194.28
2019-04-20T05:16:40.942Z,95200.68
2019-04-20T05:21:53.555Z,95187.26
2019-04-20T05:24:27.943Z,95209.47
2019-04-20T05:27:01.933Z,95205.78
2019-04-20T05:29:17.706Z,95210.61
2019-04-20T05:31:47.131Z,95215.90
2019-04-20T05:34:30.914Z,95217.14
2019-04-20T05:37:03.640Z,95218.88
2019-04-20T05:39:33.000Z,95218.20
2019-04-20T05:42:02.975Z,95223.91
2019-04-20T05:44:39.434Z,95224.88
2019-04-20T05:47:09.273Z,95231.22
2019-04-20T05:49:40.273Z,95235.80
2019-04-20T05:52:15.340Z,95237.38
2019-04-20T05:54:43.090Z,95234.08
2019-04-20T05:57:19.540Z,95235.52
2019-04-20T05:59:47.342Z,95241.00
2019-04-20T06:02:14.034Z,95248.64
2019-04-20T06:04:54.572Z,95246.92
2019-04-20T06:07:09.458Z,95248.25
2019-04-20T06:09:39.679Z,95240.71
2019-04-20T06:12:25.385Z,95251.54
2019-04-20T06:14:53.631Z,95249.30
2019-04-20T06:17:33.356Z,95251.52
2019-04-20T06:20:06.246Z,95249.81
2019-04-20T06:22:37.904Z,95251.66
2019-04-20T06:25:21.895Z,95251.33
2019-04-20T06:27:39.980Z,95252.72
2019-04-20T06:30:06.891Z,95252.61
2019-04-20T06:33:11.486Z,95257.50
2019-04-20T06:35:51.729Z,95261.84
2019-04-20T06:38:10.146Z,95262.74
2019-04-20T06:40:46.884Z,95262.49
2019-04-20T06:43:08.996Z,95265.37
2019-04-20T06:45:33.569Z,95276.25
2019-04-20T06:48:05.831Z,95271.31
2019-04-20T06:50:30.245Z,95276.89
2019-04-20T06:53:32.417Z,95275.67
2019-04-20T06:55:57.368Z,95279.31
2019-04-20T06:58:39.375Z,95280.35
2019-04-20T07:00:56.922Z,95280.00
2019-04-20T07:03:40.712Z,95280.39
2019-04-20T07:06:18.300Z,95283.27
2019-04-20T07:08:42.316Z,95280.34
2019-04-20T07:11:04.187Z,95286.92
2019-04-20T07:13:17.675Z,95289.88
2019-04-20T07:16:18.552Z,95291.35
2019-04-20T07:19:00.823Z,95291.35
2019-04-20T07:22:08.886Z,95302.41
2019-04-20T07:24:24.858Z,95307.10
2019-04-20T07:26:58.847Z,95311.95
2019-04-20T07:29:32.033Z,95315.09
2019-04-20T07:31:48.745Z,95312.64
2019-04-20T07:34:26.176Z,95312.89
2019-04-20T07:37:17.743Z,95303.05
2019-04-20T07:39:32.792Z,95311.17
2019-04-20T07:42:01.820Z,95312.11
2019-04-20T07:44:38.590Z,95316.02
2019-04-20T07:47:07.849Z,95312.48
2019-04-20T07:49:32.613Z,95312.64
2019-04-20T07:51:43.702Z,95312.03
2019-04-20T07:54:40.161Z,95312.38
2019-04-20T07:57:02.085Z,95306.43
2019-04-20T07:59:24.366Z,95311.49
2019-04-20T08:02:07.824Z,95305.63
2019-04-20T08:04:32.495Z,95308.20
2019-04-20T08:06:53.200Z,95305.12
2019-04-20T08:09:26.157Z,95308.95
2019-04-20T08:12:22.509Z,95309.95
2019-04-20T08:14:47.378Z,95312.05
2019-04-20T08:17:26.792Z,95320.10
2019-04-20T08:19:48.448Z,95315.35
2019-04-20T08:22:21.868Z,95313.52
2019-04-20T08:24:42.826Z,95315.91
2019-04-20T08:27:07.591Z,95314.78
2019-04-20T08:29:49.929Z,95314.07
2019-04-20T08:32:28.323Z,95312.13
2019-04-20T08:35:04.934Z,95320.16
2019-04-20T08:37:26.612Z,95316.95
2019-04-20T08:42:39.796Z,95319.47
2019-04-20T08:45:04.024Z,95321.03
2019-04-20T08:47:48.661Z,95323.30
2019-04-20T08:50:17.264Z,95327.89
2019-04-20T08:53:06.132Z,95299.88
2019-04-20T08:55:09.272Z,95322.97
2019-04-20T08:57:24.793Z,95327.14
2019-04-20T08:59:54.361Z,95329.78
2019-04-20T09:02:25.730Z,95333.00
2019-04-20T09:05:02.540Z,95327.89
2019-04-20T09:07:29.907Z,95330.41
2019-04-20T09:10:16.435Z,95330.30
2019-04-20T09:12:42.149Z,95329.02
2019-04-20T09:14:57.367Z,95327.83
2019-04-20T09:17:45.243Z,95329.13
2019-04-20T09:20:16.256Z,95332.70
2019-04-20T09:23:09.774Z,95328.10
2019-04-20T09:25:53.376Z,95328.34
2019-04-20T09:28:13.937Z,95325.33
2019-04-20T09:30:48.122Z,95315.50
2019-04-20T09:33:47.008Z,95324.91
2019-04-20T09:36:19.654Z,95330.08
2019-04-20T09:39:01.097Z,95323.05
2019-04-20T09:41:54.842Z,95325.67
2019-04-20T09:44:06.750Z,95322.41
2019-04-20T09:46:40.163Z,95324.86
2019-04-20T09:49:16.979Z,95325.06
2019-04-20T09:51:51.142Z,95323.42
2019-04-20T09:54:29.991Z,95323.42
2019-04-20T09:56:59.232Z,95323.50
2019-04-20T09:59:30.618Z,95321.41
2019-04-20T10:01:45.376Z,95323.35
2019-04-20T10:04:08.835Z,95320.07
2019-04-20T10:06:37.761Z,95325.50
2019-04-20T10:09:09.638Z,95329.36
2019-04-20T10:11:41.770Z,95325.28
2019-04-20T10:14:10.291Z,95328.08
2019-04-20T10:16:40.014Z,95328.53
2019-04-20T10:19:11.463Z,95326.94
2019-04-20T10:21:39.178Z,95329.53
2019-04-20T10:24:08.550Z,95322.27
2019-04-20T10:26:38.594Z,95323.45
2019-04-20T10:29:07.919Z,95332.86
2019-04-20T10:31:42.564Z,95332.27
2019-04-20T10:34:07.518Z,95333.98
2019-04-20T10:36:41.732Z,95326.23
2019-04-20T10:39:10.872Z,95323.77
2019-04-20T10:41:50.150Z,95330.74
2019-04-20T10:44:11.212Z,95328.20
2019-04-20T10:46:40.954Z,95329.34
2019-04-20T10:49:11.092Z,95328.09
2019-04-20T10:51:40.264Z,95331.50
2019-04-20T10:54:08.960Z,95333.62
2019-04-20T10:56:37.679Z,95341.23
2019-04-20T10:59:07.629Z,95347.02
2019-04-20T11:01:37.938Z,95341.17
2019-04-20T11:04:06.783Z,95339.22
2019-04-20T11:06:36.508Z,95343.64
2019-04-20T11:09:08.883Z,95340.88
2019-04-20T11:11:38.788Z,95339.10
2019-04-20T11:14:15.583Z,95332.75
2019-04-20T11:16:38.309Z,95343.83
2019-04-20T11:19:07.511Z,95348.53
2019-04-20T11:21:36.580Z,95343.87
2019-04-20T11:24:05.396Z,95345.63
2019-04-20T11:26:37.092Z,95351.47
2019-04-20T11:29:06.396Z,95352.24
2019-04-20T11:31:40.883Z,95345.30
2019-04-20T11:34:06.071Z,95355.50
2019-04-20T11:36:35.037Z,95341.02
2019-04-20T11:39:07.169Z,95343.91
2019-04-20T11:41:37.701Z,95346.42
2019-04-20T11:44:07.601Z,95347.27
2019-04-20T11:46:36.667Z,95350.04
2019-04-20T11:49:05.806Z,95343.80
2019-04-20T11:51:34.548Z,95352.48
2019-04-20T11:54:04.236Z,95355.59
2019-04-20T11:56:38.273Z,95351.82
2019-04-20T11:59:03.766Z,95351.78
2019-04-20T12:01:43.075Z,95356.56
2019-04-20T12:04:21.520Z,95355.05
2019-04-20T12:06:36.920Z,95357.52
2019-04-20T12:09:09.047Z,95353.47
2019-04-20T12:11:53.480Z,95353.32
2019-04-20T12:14:08.163Z,95358.31
2019-04-20T12:16:37.503Z,95359.59
2019-04-20T12:19:06.498Z,95352.50
2019-04-20T12:21:35.168Z,95344.73
2019-04-20T12:24:04.528Z,95344.73
2019-04-20T12:26:33.263Z,95344.08
2019-04-20T12:29:01.962Z,95347.28
2019-04-20T12:31:31.502Z,95343.12
2019-04-20T12:34:00.377Z,95348.83
2019-04-20T12:36:30.215Z,95340.22
2019-04-20T12:38:59.240Z,95342.33
2019-04-20T12:41:37.851Z,95352.04
2019-04-20T12:43:59.531Z,95340.72
2019-04-20T12:46:29.656Z,95335.72
2019-04-20T12:48:59.786Z,95346.61
2019-04-20T12:51:33.501Z,95336.70
2019-04-20T12:53:58.912Z,95332.06
2019-04-20T12:56:28.540Z,95333.12
2019-04-20T12:58:57.799Z,95334.14
2019-04-20T13:01:26.888Z,95352.64
2019-04-20T13:03:57.404Z,95352.64
2019-04-20T13:06:27.912Z,95343.66
2019-04-20T13:09:00.284Z,95342.84
2019-04-20T13:11:43.597Z,95324.13
2019-04-20T13:14:35.100Z,95345.14
2019-04-20T13:17:04.218Z,95345.85
2019-04-20T13:19:33.350Z,95342.00
2019-04-20T13:22:03.235Z,95332.09
2019-04-20T13:24:32.397Z,95337.06
2019-04-20T13:27:01.199Z,95334.48
2019-04-20T13:29:30.994Z,95332.73
2019-04-20T13:32:00.142Z,95331.00
2019-04-20T13:34:29.059Z,95322.37
2019-04-20T13:36:58.191Z,95323.52
2019-04-20T13:39:27.021Z,95336.34
2019-04-20T13:42:04.464Z,95338.66
2019-04-20T13:44:27.213Z,95313.34
2019-04-20T13:46:56.718Z,95322.78
2019-04-20T13:49:25.530Z,95324.50
2019-04-20T13:51:54.886Z,95337.86
2019-04-20T13:54:26.592Z,95341.41
2019-04-20T13:56:55.791Z,95337.80
2019-04-20T13:59:35.315Z,95335.39
2019-04-20T14:02:06.755Z,95337.31
2019-04-20T14:04:37.096Z,95342.38
2019-04-20T14:07:07.395Z,95339.80
2019-04-20T14:09:37.328Z,95326.55
2019-04-20T14:12:20.212Z,95333.73
2019-04-20T14:14:37.237Z,95336.89
2019-04-20T14:17:07.544Z,95340.36
2019-04-20T14:19:36.965Z,95331.05
2019-04-20T14:22:06.145Z,95331.28
2019-04-20T14:24:35.097Z,95331.48
2019-04-20T14:27:03.984Z,95336.08
2019-04-20T14:29:32.845Z,95331.91
2019-04-20T14:32:03.652Z,95330.23
2019-04-20T14:34:33.102Z,95335.61
2019-04-20T14:37:02.553Z,95334.72
2019-04-20T14:39:32.390Z,95333.73
2019-04-20T14:42:02.305Z,95325.09
2019-04-20T14:44:32.056Z,95333.62
2019-04-20T14:47:01.018Z,95328.02
2019-04-20T14:49:30.505Z,95334.16
2019-04-20T14:52:01.150Z,95332.97
2019-04-20T14:54:30.023Z,95332.97
2019-04-20T14:56:59.199Z,95327.34
2019-04-20T14:59:33.742Z,95328.73
2019-04-20T15:02:04.083Z,95326.09
2019-04-20T15:04:34.742Z,95330.38
2019-04-20T15:07:04.657Z,95324.10
2019-04-20T15:09:38.440Z,95332.89
2019-04-20T15:12:06.803Z,95325.81
2019-04-20T15:14:36.745Z,95330.11
2019-04-20T15:17:06.767Z,95323.75
2019-04-20T15:19:37.380Z,95322.25
2019-04-20T15:22:23.774Z,95320.87
2019-04-20T15:24:55.671Z,95326.11
2019-04-20T15:27:24.595Z,95329.53
2019-04-20T15:29:54.049Z,95328.87
2019-04-20T15:32:23.055Z,95329.40
2019-04-20T15:34:52.939Z,95323.20
2019-04-20T15:37:23.321Z,95328.70
2019-04-20T15:39:52.837Z,95324.34
2019-04-20T15:42:21.580Z,95328.47
2019-04-20T15:44:51.431Z,95328.87
2019-04-20T15:47:20.374Z,95328.81
2019-04-20T15:49:49.785Z,95325.56
2019-04-20T15:52:24.518Z,95329.84
2019-04-20T15:54:49.696Z,95322.17
2019-04-20T15:57:23.264Z,95326.03
2019-04-20T15:59:48.860Z,95327.05
2019-04-20T16:02:23.050Z,95325.97
2019-04-20T16:05:00.519Z,95324.34
2019-04-20T16:07:30.763Z,95333.41
2019-04-20T16:10:01.107Z,95327.75
2019-04-20T16:12:31.068Z,95324.47
2019-04-20T16:15:00.043Z,95321.83
2019-04-20T16:17:32.754Z,95319.89
2019-04-20T16:20:06.235Z,95320.44
2019-04-20T16:22:31.019Z,95321.60
2019-04-20T16:25:07.609Z,95316.81
2019-04-20T16:27:38.103Z,95314.42
2019-04-20T16:30:09.707Z,95316.78
2019-04-20T16:32:38.640Z,95314.86
2019-04-20T16:35:08.785Z,95325.00
2019-04-20T16:37:38.392Z,95319.83
2019-04-20T16:40:09.873Z,95326.28
2019-04-20T16:42:41.798Z,95316.45
2019-04-20T16:45:09.588Z,95329.11
2019-04-20T16:47:38.329Z,95325.67
2019-04-20T16:50:07.249Z,95322.61
2019-04-20T16:52:36.931Z,95321.84
2019-04-20T16:55:08.100Z,95322.09
2019-04-20T16:57:37.434Z,95322.20
2019-04-20T17:00:07.728Z,95325.89
2019-04-20T17:02:36.457Z,95330.05
2019-04-20T17:05:05.480Z,95329.81
2019-04-20T17:07:37.164Z,95332.48
2019-04-20T17:10:09.637Z,95328.77
2019-04-20T17:12:39.948Z,95329.83
2019-04-20T17:15:11.766Z,95328.78
2019-04-20T17:17:40.744Z,95334.13
2019-04-20T17:20:11.613Z,95338.09
2019-04-20T17:22:40.422Z,95338.36
2019-04-20T17:25:10.115Z,95343.81
2019-04-20T17:27:44.748Z,95348.14
2019-04-20T17:30:33.644Z,95351.20
2019-04-20T17:33:04.390Z,95348.33
2019-04-20T17:35:43.445Z,95352.88
2019-04-20T17:38:04.764Z,95346.70
2019-04-20T17:40:56.378Z,95355.03
2019-04-20T17:43:16.009Z,95355.38
2019-04-20T17:45:43.207Z,95361.15
2019-04-20T17:48:18.588Z,95362.98
2019-04-20T17:50:58.954Z,95367.64
2019-04-20T17:53:20.419Z,95367.79
2019-04-20T17:55:51.352Z,95371.56
2019-04-20T17:58:24.133Z,95372.60
2019-04-20T18:00:59.847Z,95367.48
2019-04-20T18:04:05.498Z,95378.94
2019-04-20T18:06:21.265Z,95382.23
2019-04-20T18:08:49.405Z,95360.00
2019-04-20T18:11:09.179Z,95384.23
2019-04-20T18:13:34.095Z,95386.15
2019-04-20T18:16:30.027Z,95386.73
2019-04-20T18:19:01.977Z,95391.09
2019-04-20T18:21:26.660Z,95393.64
2019-04-20T18:23:56.254Z,95395.77
2019-04-20T18:26:45.367Z,95401.95
2019-04-20T18:29:15.007Z,95403.47
2019-04-20T18:31:33.639Z,95402.25
2019-04-20T18:34:11.270Z,95402.19
2019-04-20T18:36:38.268Z,95401.86
2019-04-20T18:39:10.463Z,95398.95
2019-04-20T18:41:46.500Z,95405.11
2019-04-20T18:44:08.626Z,95400.11
2019-04-20T18:47:00.313Z,95405.27
2019-04-20T18:49:24.214Z,95410.98
2019-04-20T18:51:39.817Z,95404.98
2019-04-20T18:54:16.208Z,95410.56
2019-04-20T18:56:43.721Z,95409.98
2019-04-20T18:59:09.430Z,95409.38
2019-04-20T19:01:42.035Z,95414.30
2019-04-20T19:04:09.866Z,95413.69
2019-04-20T19:06:38.918Z,95410.23
2019-04-20T19:09:09.533Z,95417.62
2019-04-20T19:11:43.702Z,95405.11
2019-04-20T19:14:34.956Z,95408.30
2019-04-20T19:17:12.272Z,95412.67
2019-04-20T19:19:42.429Z,95409.02
2019-04-20T19:22:06.036Z,95412.66
2019-04-20T19:24:37.893Z,95411.38
2019-04-20T19:27:10.658Z,95414.65
2019-04-20T19:29:45.610Z,95409.64
2019-04-20T19:32:24.084Z,95414.59
2019-04-20T19:34:54.137Z,95414.23
2019-04-20T19:37:15.816Z,95411.19
2019-04-20T19:39:54.682Z,95416.43
2019-04-20T19:42:23.199Z,95416.36
2019-04-20T19:44:53.801Z,95414.84
2019-04-20T19:47:29.415Z,95411.29
2019-04-20T19:49:49.739Z,95412.34
2019-04-20T19:52:51.476Z,95413.58
2019-04-20T19:55:04.093Z,95413.77
2019-04-20T19:57:32.017Z,95411.44
2019-04-20T19:59:48.373Z,95411.77
2019-04-20T20:02:11.869Z,95409.34
2019-04-20T20:04:48.807Z,95412.40
2019-04-20T20:07:23.213Z,95402.78
2019-04-20T20:09:51.580Z,95406.20
2019-04-20T20:12:15.874Z,95407.00
2019-04-20T20:14:46.077Z,95404.73
2019-04-20T20:17:32.743Z,95403.27
2019-04-20T20:20:06.765Z,95402.16
2019-04-20T20:22:26.694Z,95405.03
2019-04-20T20:24:45.097Z,95403.63
2019-04-20T20:27:26.897Z,95401.28
2019-04-20T20:29:57.243Z,95401.34
2019-04-20T20:32:21.337Z,95399.19
2019-04-20T20:34:54.408Z,95407.83
2019-04-20T20:37:26.712Z,95404.66
2019-04-20T20:39:54.382Z,95406.75
2019-04-20T20:42:32.219Z,95404.46
2019-04-20T20:44:54.965Z,95409.64
2019-04-20T20:47:41.418Z,95410.25
2019-04-20T20:50:15.437Z,95408.62
2019-04-20T20:52:31.524Z,95403.27
2019-04-20T20:54:58.850Z,95406.24
2019-04-20T20:57:24.305Z,95398.31
2019-04-20T20:59:55.268Z,95400.73
2019-04-20T21:02:24.417Z,95398.91
2019-04-20T21:04:51.321Z,95398.05
2019-04-20T21:07:20.599Z,95394.91
2019-04-20T21:09:50.414Z,95395.98
2019-04-20T21:12:21.589Z,95395.58
2019-04-20T21:14:50.929Z,95388.31
2019-04-20T21:17:23.613Z,95390.44
2019-04-20T21:20:06.355Z,95392.61
2019-04-20T21:22:42.934Z,95391.09
2019-04-20T21:24:55.263Z,95391.96
2019-04-20T21:27:24.140Z,95392.98
2019-04-20T21:29:57.865Z,95388.50
2019-04-20T21:32:26.152Z,95388.23
2019-04-20T21:35:02.671Z,95389.58
2019-04-20T21:37:27.118Z,95382.45
2019-04-20T21:39:59.715Z,95383.37
2019-04-20T21:42:28.530Z,95382.28
2019-04-20T21:45:05.599Z,95383.73
2019-04-20T21:47:31.485Z,95382.12
2019-04-20T21:50:17.123Z,95381.17
2019-04-20T21:52:36.199Z,95387.31
2019-04-20T21:54:58.435Z,95379.11
2019-04-20T21:57:32.485Z,95377.77
2019-04-20T22:00:07.035Z,95374.63
2019-04-20T22:02:33.920Z,95383.27
2019-04-20T22:04:58.262Z,95382.19
2019-04-20T22:07:28.247Z,95390.75
2019-04-20T22:09:58.424Z,95392.88
2019-04-20T22:12:37.826Z,95391.19
2019-04-20T22:15:03.952Z,95384.51
2019-04-20T22:17:32.166Z,95388.73
2019-04-20T22:20:07.012Z,95383.80
2019-04-20T22:22:45.379Z,95380.36
2019-04-20T22:25:16.122Z,95383.32
2019-04-20T22:27:34.358Z,95379.82
2019-04-20T22:30:00.115Z,95377.39
2019-04-20T22:32:29.972Z,95376.25
2019-04-20T22:35:03.184Z,95376.18
2019-04-20T22:37:33.325Z,95369.72
2019-04-20T22:40:03.089Z,95366.62
2019-04-20T22:42:37.909Z,95368.21
2019-04-20T22:45:07.239Z,95364.36
2019-04-20T22:47:33.977Z,95361.11
2019-04-20T22:50:21.572Z,95364.59
2019-04-20T22:52:44.366Z,95358.67
2019-04-20T22:55:31.233Z,95363.45
2019-04-20T22:57:50.939Z,95367.94
2019-04-20T23:00:12.286Z,95367.06
2019-04-20T23:02:36.768Z,95359.25
2019-04-20T23:05:07.037Z,95363.42
2019-04-20T23:07:36.927Z,95358.86
2019-04-20T23:10:08.731Z,95362.32
2019-04-20T23:12:39.956Z,95359.55
2019-04-20T23:15:10.355Z,95361.25
2019-04-20T23:17:43.640Z,95358.29
2019-04-20T23:20:17.166Z,95360.84
2019-04-20T23:22:43.964Z,95358.15
2019-04-20T23:25:11.286Z,95350.68
2019-04-20T23:27:41.799Z,95350.86
2019-04-20T23:30:20.246Z,95347.08
2019-04-20T23:32:42.197Z,95350.02
2019-04-20T23:35:16.267Z,95348.98
2019-04-20T23:37:43.232Z,95342.86
2019-04-20T23:40:15.025Z,95341.20
2019-04-20T23:42:51.760Z,95338.89
2019-04-20T23:45:35.497Z,95333.67
2019-04-20T23:48:04.313Z,95333.53
2019-04-20T23:50:49.012Z,95328.64
2019-04-20T23:53:22.319Z,95325.11
2019-04-20T23:55:31.921Z,95328.17
2019-04-20T23:58:04.974Z,95320.61
